Time;durP1;ratioP1;P1;durP2;ratioP2;P2;SDS_P1;SDS_P2;PMS_P1;PMS_P2;Temp;Humidity;BMP_temperature;BMP_pressure;BME280_temperature;BME280_humidity;BME280_pressure;Samples;Min_cycle;Max_cycle;Signal;HPM_P1;HPM_P2
2022/12/05 00:01:43;;;;;;;2.22;1.55;;;;;;;;;;5064076;28;20398;-68
2022/12/05 00:04:13;;;;;;;4.20;1.67;;;;;;;;;;5060525;28;20045;-70
2022/12/05 00:06:42;;;;;;;1.20;0.52;;;;;;;;;;5063429;28;20041;-64
2022/12/05 00:09:13;;;;;;;1.55;1.23;;;;;;;;;;5066996;28;20049;-69
2022/12/05 00:11:43;;;;;;;2.10;1.63;;;;;;;;;;5061124;28;20040;-65
2022/12/05 00:14:12;;;;;;;2.83;1.70;;;;;;;;;;5062633;28;20084;-65
2022/12/05 00:16:42;;;;;;;7.32;1.52;;;;;;;;;;5059246;28;20381;-65
2022/12/05 00:19:12;;;;;;;3.03;1.48;;;;;;;;;;5060448;28;20515;-69
2022/12/05 00:21:41;;;;;;;3.92;2.40;;;;;;;;;;5058916;28;20052;-64
2022/12/05 00:24:12;;;;;;;4.82;1.70;;;;;;;;;;5060943;28;20136;-64
2022/12/05 00:26:42;;;;;;;2.10;1.75;;;;;;;;;;5061091;28;20062;-65
2022/12/05 00:29:10;;;;;;;3.97;1.58;;;;;;;;;;5060416;28;20507;-64
2022/12/05 00:31:38;;;;;;;1.60;1.17;;;;;;;;;;5058054;28;20087;-64
2022/12/05 00:34:07;;;;;;;6.45;3.25;;;;;;;;;;5060127;28;20136;-66
2022/12/05 00:36:36;;;;;;;2.95;1.35;;;;;;;;;;5060645;28;20051;-64
2022/12/05 00:39:06;;;;;;;8.15;2.30;;;;;;;;;;5060215;28;20036;-66
2022/12/05 00:41:34;;;;;;;3.20;0.77;;;;;;;;;;5061300;28;20052;-67
2022/12/05 00:44:04;;;;;;;2.05;1.15;;;;;;;;;;5061382;28;20493;-65
2022/12/05 00:46:34;;;;;;;2.28;1.70;;;;;;;;;;5061020;28;20040;-64
2022/12/05 00:49:03;;;;;;;5.07;2.10;;;;;;;;;;5060720;28;20048;-66
2022/12/05 00:51:32;;;;;;;7.65;2.10;;;;;;;;;;5059270;28;20105;-65
2022/12/05 00:54:01;;;;;;;2.28;2.03;;;;;;;;;;5061006;28;20098;-64
2022/12/05 00:56:30;;;;;;;2.70;1.42;;;;;;;;;;5062873;28;20452;-64
2022/12/05 00:59:00;;;;;;;1.27;1.13;;;;;;;;;;5057968;28;20044;-64
2022/12/05 01:01:31;;;;;;;5.07;2.13;;;;;;;;;;5060318;28;20049;-64
2022/12/05 01:04:01;;;;;;;1.92;1.10;;;;;;;;;;5060488;28;20055;-64
2022/12/05 01:06:29;;;;;;;1.75;1.08;;;;;;;;;;5060565;28;20048;-65
2022/12/05 01:08:58;;;;;;;2.60;1.75;;;;;;;;;;5058371;28;20140;-65
2022/12/05 01:11:27;;;;;;;2.83;2.05;;;;;;;;;;5060546;28;20044;-64
2022/12/05 01:13:56;;;;;;;2.70;1.58;;;;;;;;;;5059319;28;20052;-66
2022/12/05 01:16:25;;;;;;;3.03;1.70;;;;;;;;;;5054765;28;20071;-64
2022/12/05 01:18:55;;;;;;;1.00;0.93;;;;;;;;;;5059157;28;20126;-66
2022/12/05 01:21:24;;;;;;;7.03;2.13;;;;;;;;;;5059754;28;20163;-65
2022/12/05 01:23:53;;;;;;;2.55;1.77;;;;;;;;;;5059849;28;20063;-67
2022/12/05 01:26:22;;;;;;;4.50;2.10;;;;;;;;;;5060424;28;20055;-64
2022/12/05 01:28:51;;;;;;;2.25;1.63;;;;;;;;;;5057913;28;20051;-65
2022/12/05 01:31:22;;;;;;;5.88;1.48;;;;;;;;;;5063151;28;20102;-65
2022/12/05 01:33:51;;;;;;;2.97;1.38;;;;;;;;;;5058576;28;20048;-64
2022/12/05 01:36:21;;;;;;;0.63;0.30;;;;;;;;;;5058965;28;20512;-65
2022/12/05 01:38:50;;;;;;;1.23;1.13;;;;;;;;;;5060755;28;20586;-67
2022/12/05 01:41:20;;;;;;;3.47;0.93;;;;;;;;;;5056126;28;20134;-65
2022/12/05 01:43:55;;;;;;;2.15;0.93;;;;;;;;;;5061600;28;20048;-67
2022/12/05 01:46:24;;;;;;;8.50;3.35;;;;;;;;;;5058703;28;20056;-65
2022/12/05 01:48:54;;;;;;;2.63;1.17;;;;;;;;;;5053206;28;20109;-69
2022/12/05 01:51:25;;;;;;;1.88;1.30;;;;;;;;;;5059967;28;20177;-65
2022/12/05 01:53:53;;;;;;;1.73;1.42;;;;;;;;;;5061246;28;20205;-68
2022/12/05 01:56:22;;;;;;;0.93;0.93;;;;;;;;;;5058484;28;20098;-68
2022/12/05 01:58:51;;;;;;;3.58;2.25;;;;;;;;;;5061670;28;20124;-64
2022/12/05 02:01:19;;;;;;;0.65;0.65;;;;;;;;;;5059432;28;20447;-64
2022/12/05 02:03:49;;;;;;;6.47;2.13;;;;;;;;;;5060512;28;20048;-65
2022/12/05 02:06:18;;;;;;;3.28;1.70;;;;;;;;;;5055513;28;20467;-66
2022/12/05 02:08:48;;;;;;;2.13;1.85;;;;;;;;;;5058530;28;20045;-64
2022/12/05 02:11:16;;;;;;;2.40;1.02;;;;;;;;;;5058773;28;20044;-64
2022/12/05 02:13:53;;;;;;;2.65;1.20;;;;;;;;;;5059567;28;20083;-65
2022/12/05 02:16:29;;;;;;;0.88;0.40;;;;;;;;;;5059889;28;20059;-65
2022/12/05 02:19:01;;;;;;;1.90;0.85;;;;;;;;;;5058345;28;20074;-66
2022/12/05 02:21:39;;;;;;;2.33;1.80;;;;;;;;;;5056299;28;20040;-65
2022/12/05 02:24:18;;;;;;;2.58;0.85;;;;;;;;;;5059330;28;20052;-68
2022/12/05 02:26:55;;;;;;;1.75;1.65;;;;;;;;;;5058160;28;20111;-64
2022/12/05 02:29:50;;;;;;;3.33;1.05;;;;;;;;;;5061353;28;20056;-66
2022/12/05 02:32:24;;;;;;;3.65;2.17;;;;;;;;;;5058127;28;20101;-64
2022/12/05 02:34:56;;;;;;;2.10;2.00;;;;;;;;;;5058694;28;20412;-65
2022/12/05 02:37:29;;;;;;;1.45;1.13;;;;;;;;;;5057843;28;20053;-68
2022/12/05 02:40:01;;;;;;;2.92;1.50;;;;;;;;;;5055713;28;20492;-65
2022/12/05 02:42:33;;;;;;;9.27;2.40;;;;;;;;;;5059814;28;20063;-64
2022/12/05 02:45:06;;;;;;;5.93;1.40;;;;;;;;;;5060813;28;20063;-67
2022/12/05 02:47:37;;;;;;;2.35;0.98;;;;;;;;;;5055460;28;20049;-68
2022/12/05 02:50:06;;;;;;;4.28;2.47;;;;;;;;;;5056930;28;20052;-64
2022/12/05 02:52:35;;;;;;;2.00;1.40;;;;;;;;;;5061900;28;20059;-68
2022/12/05 02:55:04;;;;;;;1.85;1.50;;;;;;;;;;5056921;28;20493;-64
2022/12/05 02:57:33;;;;;;;1.40;1.15;;;;;;;;;;5057931;28;20120;-65
2022/12/05 03:00:02;;;;;;;1.48;1.38;;;;;;;;;;5056832;28;20439;-64
2022/12/05 03:02:32;;;;;;;1.33;1.20;;;;;;;;;;5058977;28;21684;-64
2022/12/05 03:05:05;;;;;;;2.25;1.70;;;;;;;;;;5058325;28;20048;-64
2022/12/05 03:07:33;;;;;;;2.40;1.58;;;;;;;;;;5058201;28;20546;-69
2022/12/05 03:10:04;;;;;;;4.47;1.85;;;;;;;;;;5059749;28;20048;-65
2022/12/05 03:12:34;;;;;;;4.88;2.33;;;;;;;;;;5058330;28;20053;-64
2022/12/05 03:15:05;;;;;;;2.67;1.30;;;;;;;;;;5056546;28;20041;-64
2022/12/05 03:17:36;;;;;;;3.25;1.20;;;;;;;;;;5059502;28;20098;-70
2022/12/05 03:20:10;;;;;;;4.00;1.95;;;;;;;;;;5057147;28;20055;-64
2022/12/05 03:22:41;;;;;;;5.37;2.40;;;;;;;;;;5057836;28;20075;-67
2022/12/05 03:25:12;;;;;;;1.77;1.40;;;;;;;;;;5058739;28;20902;-69
2022/12/05 03:27:45;;;;;;;0.50;0.50;;;;;;;;;;5058953;28;20885;-64
2022/12/05 03:30:15;;;;;;;0.50;0.50;;;;;;;;;;5061208;28;20496;-66
2022/12/05 03:32:46;;;;;;;4.15;1.63;;;;;;;;;;5059632;28;20107;-64
2022/12/05 03:35:19;;;;;;;1.63;1.38;;;;;;;;;;5066640;28;20063;-67
2022/12/05 03:37:50;;;;;;;0.57;0.57;;;;;;;;;;5070457;28;20048;-68
2022/12/05 03:40:24;;;;;;;2.85;1.85;;;;;;;;;;5057095;28;20421;-65
2022/12/05 03:42:55;;;;;;;2.40;2.20;;;;;;;;;;5074184;28;20057;-66
2022/12/05 03:45:27;;;;;;;1.60;1.45;;;;;;;;;;5063667;28;20040;-64
2022/12/05 03:48:01;;;;;;;0.95;0.95;;;;;;;;;;5070012;28;20052;-64
2022/12/05 03:50:31;;;;;;;0.57;0.57;;;;;;;;;;5060233;28;20048;-65
2022/12/05 03:53:01;;;;;;;7.45;1.48;;;;;;;;;;5067239;28;20048;-64
2022/12/05 03:55:49;;;;;;;0.88;0.70;;;;;;;;;;5069797;28;20160;-64
2022/12/05 03:58:19;;;;;;;1.20;1.13;;;;;;;;;;5073788;28;20056;-65
2022/12/05 04:00:48;;;;;;;3.42;2.42;;;;;;;;;;5065777;28;20052;-64
2022/12/05 04:03:19;;;;;;;1.23;0.77;;;;;;;;;;5068340;28;20421;-65
2022/12/05 04:05:50;;;;;;;0.73;0.70;;;;;;;;;;5075566;28;20480;-66
2022/12/05 04:08:21;;;;;;;2.53;1.60;;;;;;;;;;5063650;28;20067;-66
2022/12/05 04:10:51;;;;;;;0.63;0.63;;;;;;;;;;5069691;28;20408;-65
2022/12/05 04:13:22;;;;;;;1.27;1.17;;;;;;;;;;5074545;28;20055;-65
2022/12/05 04:18:43;;;;;;;0.77;0.77;;;;;;;;;;5063619;28;20071;-65
2022/12/05 04:26:47;;;;;;;1.67;1.55;;;;;;;;;;5063231;28;20508;-65
2022/12/05 04:29:20;;;;;;;0.40;0.40;;;;;;;;;;5057782;28;20067;-65
2022/12/05 04:31:51;;;;;;;0.20;0.20;;;;;;;;;;5063988;28;20044;-65
2022/12/05 04:34:22;;;;;;;0.90;0.90;;;;;;;;;;5063653;28;20053;-65
2022/12/05 04:36:54;;;;;;;0.77;0.77;;;;;;;;;;5062251;28;20044;-65
2022/12/05 04:39:24;;;;;;;1.38;1.10;;;;;;;;;;5070291;28;20083;-64
2022/12/05 04:41:55;;;;;;;3.97;1.02;;;;;;;;;;5069172;28;20520;-65
2022/12/05 04:44:26;;;;;;;1.30;0.80;;;;;;;;;;5065585;28;20140;-66
2022/12/05 04:46:55;;;;;;;2.63;1.80;;;;;;;;;;5066609;28;20053;-64
2022/12/05 04:49:25;;;;;;;1.40;0.88;;;;;;;;;;5066340;28;20078;-64
2022/12/05 04:51:57;;;;;;;0.43;0.43;;;;;;;;;;5073630;28;20101;-64
2022/12/05 04:54:32;;;;;;;0.75;0.75;;;;;;;;;;5070175;28;20047;-64
2022/12/05 04:57:02;;;;;;;2.42;1.27;;;;;;;;;;5068479;28;20646;-64
2022/12/05 04:59:31;;;;;;;2.33;1.27;;;;;;;;;;5065542;28;20060;-65
2022/12/05 05:02:03;;;;;;;1.50;0.85;;;;;;;;;;5066622;28;20053;-66
2022/12/05 05:04:34;;;;;;;0.68;0.68;;;;;;;;;;5061357;28;20075;-64
2022/12/05 05:07:07;;;;;;;1.15;1.05;;;;;;;;;;5066084;28;20068;-64
2022/12/05 05:09:35;;;;;;;1.35;1.25;;;;;;;;;;5058370;28;20055;-64
2022/12/05 05:12:04;;;;;;;2.47;1.15;;;;;;;;;;5058382;28;20393;-64
2022/12/05 05:14:33;;;;;;;1.33;1.05;;;;;;;;;;5067384;28;20055;-65
2022/12/05 05:17:01;;;;;;;1.48;0.90;;;;;;;;;;5057109;28;20048;-64
2022/12/05 05:19:29;;;;;;;1.98;1.38;;;;;;;;;;5065958;28;20048;-65
2022/12/05 05:21:59;;;;;;;1.75;1.13;;;;;;;;;;5067640;28;20081;-66
2022/12/05 05:24:29;;;;;;;2.60;1.35;;;;;;;;;;5072522;28;20431;-64
2022/12/05 05:26:57;;;;;;;2.20;1.38;;;;;;;;;;5032393;28;1162474;-65
2022/12/05 05:29:26;;;;;;;0.40;0.40;;;;;;;;;;5054527;28;20068;-64
2022/12/05 05:31:54;;;;;;;1.25;0.85;;;;;;;;;;5070809;28;20040;-64
2022/12/05 05:34:25;;;;;;;1.70;1.40;;;;;;;;;;5052875;28;20048;-64
2022/12/05 05:36:54;;;;;;;4.75;2.80;;;;;;;;;;5064658;28;20053;-64
2022/12/05 05:39:22;;;;;;;2.20;2.00;;;;;;;;;;5068500;28;20504;-65
2022/12/05 05:41:52;;;;;;;4.95;2.30;;;;;;;;;;5064935;28;20488;-64
2022/12/05 05:44:21;;;;;;;3.70;2.35;;;;;;;;;;5065219;28;20146;-68
2022/12/05 05:46:49;;;;;;;4.35;2.03;;;;;;;;;;5059561;28;20103;-65
2022/12/05 05:49:18;;;;;;;3.70;1.30;;;;;;;;;;5053498;28;20150;-66
2022/12/05 05:51:46;;;;;;;2.45;1.48;;;;;;;;;;5060740;28;20448;-64
2022/12/05 05:54:14;;;;;;;2.67;1.63;;;;;;;;;;5041218;28;20163;-67
2022/12/05 05:56:43;;;;;;;1.08;1.02;;;;;;;;;;5064149;28;20074;-64
2022/12/05 05:59:13;;;;;;;2.92;1.50;;;;;;;;;;5059371;28;20044;-67
2022/12/05 06:01:41;;;;;;;4.18;1.70;;;;;;;;;;5055610;28;20041;-68
2022/12/05 06:04:09;;;;;;;4.00;1.65;;;;;;;;;;5062639;28;20056;-64
2022/12/05 06:06:38;;;;;;;1.50;0.85;;;;;;;;;;5048654;28;20060;-68
2022/12/05 06:09:07;;;;;;;0.93;0.93;;;;;;;;;;5050818;28;20119;-65
2022/12/05 06:11:35;;;;;;;5.38;1.88;;;;;;;;;;5053744;28;20052;-65
2022/12/05 06:14:03;;;;;;;1.52;1.38;;;;;;;;;;5050558;28;20060;-65
2022/12/05 06:16:33;;;;;;;2.25;0.60;;;;;;;;;;5054398;28;20085;-64
2022/12/05 06:19:02;;;;;;;12.27;1.85;;;;;;;;;;5060171;28;20045;-65
2022/12/05 06:21:30;;;;;;;2.80;1.35;;;;;;;;;;5056250;28;20076;-65
2022/12/05 06:23:59;;;;;;;4.97;1.23;;;;;;;;;;5058728;28;20051;-66
2022/12/05 06:26:27;;;;;;;4.10;1.35;;;;;;;;;;5054216;28;20114;-65
2022/12/05 06:28:55;;;;;;;6.93;1.77;;;;;;;;;;5060432;28;20079;-65
2022/12/05 06:31:29;;;;;;;3.17;1.50;;;;;;;;;;5074706;28;20155;-64
2022/12/05 06:34:02;;;;;;;5.03;2.60;;;;;;;;;;5057342;28;20056;-65
2022/12/05 06:36:30;;;;;;;2.22;1.58;;;;;;;;;;5058761;28;20349;-65
2022/12/05 06:38:59;;;;;;;1.58;1.05;;;;;;;;;;5046127;28;20465;-65
2022/12/05 06:41:28;;;;;;;3.95;1.88;;;;;;;;;;5063697;28;20934;-66
2022/12/05 06:43:57;;;;;;;0.98;0.75;;;;;;;;;;5062037;28;20163;-65
2022/12/05 06:46:29;;;;;;;6.40;1.65;;;;;;;;;;5069135;28;20052;-67
2022/12/05 06:48:58;;;;;;;6.53;1.75;;;;;;;;;;5067449;28;20825;-65
2022/12/05 06:51:28;;;;;;;4.00;1.73;;;;;;;;;;5063508;28;20049;-69
2022/12/05 06:53:57;;;;;;;2.05;1.63;;;;;;;;;;5076154;28;20049;-64
2022/12/05 06:56:25;;;;;;;3.72;1.73;;;;;;;;;;5075780;28;20048;-64
2022/12/05 06:58:54;;;;;;;4.63;1.35;;;;;;;;;;5066654;28;20052;-65
2022/12/05 07:01:38;;;;;;;1.23;1.15;;;;;;;;;;5074033;28;20059;-65
2022/12/05 07:04:08;;;;;;;2.92;1.58;;;;;;;;;;5063035;28;20405;-66
2022/12/05 07:06:38;;;;;;;2.53;1.77;;;;;;;;;;5063743;28;20044;-66
2022/12/05 07:09:06;;;;;;;1.08;1.05;;;;;;;;;;5060122;28;20037;-65
2022/12/05 07:11:35;;;;;;;3.40;1.80;;;;;;;;;;5063691;28;20047;-65
2022/12/05 07:14:04;;;;;;;0.85;0.75;;;;;;;;;;5066686;28;20044;-65
2022/12/05 07:16:46;;;;;;;2.75;1.10;;;;;;;;;;5065211;28;20052;-69
2022/12/05 07:19:15;;;;;;;3.33;1.77;;;;;;;;;;5061627;28;20046;-65
2022/12/05 07:21:44;;;;;;;3.00;0.75;;;;;;;;;;5066470;28;20140;-66
2022/12/05 07:24:13;;;;;;;3.22;1.88;;;;;;;;;;5069611;28;20405;-66
2022/12/05 07:26:42;;;;;;;1.90;1.30;;;;;;;;;;5071777;28;20053;-65
2022/12/05 07:29:11;;;;;;;3.22;1.40;;;;;;;;;;5070872;28;20135;-65
2022/12/05 07:31:40;;;;;;;6.63;1.45;;;;;;;;;;5067269;28;20045;-65
2022/12/05 07:34:09;;;;;;;2.78;2.03;;;;;;;;;;5066464;28;20045;-66
2022/12/05 07:36:37;;;;;;;1.70;1.48;;;;;;;;;;5075155;28;20037;-65
2022/12/05 07:39:08;;;;;;;3.70;1.17;;;;;;;;;;5066506;28;20041;-66
2022/12/05 07:41:36;;;;;;;5.70;1.67;;;;;;;;;;5068856;28;20049;-66
2022/12/05 07:44:05;;;;;;;1.27;0.80;;;;;;;;;;5066742;28;20463;-65
2022/12/05 07:46:34;;;;;;;1.13;1.02;;;;;;;;;;5070661;28;20132;-65
2022/12/05 07:49:03;;;;;;;1.23;1.10;;;;;;;;;;5067133;28;20489;-64
2022/12/05 07:51:32;;;;;;;3.22;2.10;;;;;;;;;;5063948;28;20124;-66
2022/12/05 07:54:01;;;;;;;1.80;1.67;;;;;;;;;;5067892;28;20076;-65
2022/12/05 07:56:31;;;;;;;2.28;1.42;;;;;;;;;;5069188;28;20040;-65
2022/12/05 07:59:00;;;;;;;3.92;2.17;;;;;;;;;;5069392;28;20385;-65
2022/12/05 08:01:29;;;;;;;5.07;2.08;;;;;;;;;;5068015;28;20076;-65
2022/12/05 08:03:59;;;;;;;2.65;1.63;;;;;;;;;;5063521;28;20048;-65
2022/12/05 08:06:29;;;;;;;3.17;1.75;;;;;;;;;;5063415;28;20097;-65
2022/12/05 08:08:58;;;;;;;8.10;2.08;;;;;;;;;;5067323;28;20052;-68
2022/12/05 08:11:28;;;;;;;1.50;0.80;;;;;;;;;;5066296;28;20048;-68
2022/12/05 08:13:59;;;;;;;6.30;2.50;;;;;;;;;;5060730;28;20136;-65
2022/12/05 08:16:29;;;;;;;4.93;1.55;;;;;;;;;;5065881;28;20110;-65
2022/12/05 08:18:58;;;;;;;4.35;2.80;;;;;;;;;;5074269;28;20052;-68
2022/12/05 08:21:28;;;;;;;2.90;1.63;;;;;;;;;;5068857;28;20485;-65
2022/12/05 08:23:57;;;;;;;2.08;1.70;;;;;;;;;;5070309;28;20095;-65
2022/12/05 08:26:26;;;;;;;4.60;2.17;;;;;;;;;;5069351;28;20074;-65
2022/12/05 08:28:56;;;;;;;6.10;2.70;;;;;;;;;;5065385;28;20052;-65
2022/12/05 08:31:27;;;;;;;3.90;1.67;;;;;;;;;;5069542;28;20408;-66
2022/12/05 08:33:57;;;;;;;3.90;1.60;;;;;;;;;;5076479;28;20545;-67
2022/12/05 08:36:27;;;;;;;11.23;2.05;;;;;;;;;;5071846;28;20052;-67
2022/12/05 08:38:57;;;;;;;1.35;0.98;;;;;;;;;;5069673;28;20052;-65
2022/12/05 08:41:27;;;;;;;3.80;2.58;;;;;;;;;;5075053;28;20087;-65
2022/12/05 08:43:56;;;;;;;2.67;1.08;;;;;;;;;;5068020;28;20036;-65
2022/12/05 08:46:27;;;;;;;5.93;2.10;;;;;;;;;;5069818;28;20167;-65
2022/12/05 08:48:56;;;;;;;0.82;0.82;;;;;;;;;;5072529;28;20416;-65
2022/12/05 08:51:24;;;;;;;2.95;1.83;;;;;;;;;;5068130;28;20044;-65
2022/12/05 08:53:55;;;;;;;3.20;1.88;;;;;;;;;;5070558;28;20105;-65
2022/12/05 08:56:24;;;;;;;2.05;1.60;;;;;;;;;;5076411;28;20064;-65
2022/12/05 08:58:54;;;;;;;5.05;2.30;;;;;;;;;;5070754;28;20505;-64
2022/12/05 09:01:37;;;;;;;5.75;2.55;;;;;;;;;;5066774;28;20059;-66
2022/12/05 09:04:07;;;;;;;2.25;1.50;;;;;;;;;;5066824;28;20109;-65
2022/12/05 09:06:37;;;;;;;6.38;2.28;;;;;;;;;;5067237;28;20053;-66
2022/12/05 09:09:10;;;;;;;4.47;2.53;;;;;;;;;;5070021;28;20496;-65
2022/12/05 09:11:42;;;;;;;2.45;1.80;;;;;;;;;;5063385;28;20047;-65
2022/12/05 09:14:11;;;;;;;3.38;0.98;;;;;;;;;;5062248;28;20053;-67
2022/12/05 09:16:41;;;;;;;6.93;2.42;;;;;;;;;;5065390;28;20133;-66
2022/12/05 09:19:12;;;;;;;3.97;2.03;;;;;;;;;;5068577;28;20057;-66
2022/12/05 09:21:42;;;;;;;1.10;1.10;;;;;;;;;;5062618;28;20122;-67
2022/12/05 09:24:11;;;;;;;4.00;1.77;;;;;;;;;;5073110;28;20125;-68
2022/12/05 09:26:41;;;;;;;1.52;0.70;;;;;;;;;;5052035;28;20069;-66
2022/12/05 09:29:10;;;;;;;3.63;1.40;;;;;;;;;;5050996;28;20049;-65
2022/12/05 09:31:46;;;;;;;3.65;1.48;;;;;;;;;;5050799;28;20072;-65
2022/12/05 09:34:16;;;;;;;5.18;1.95;;;;;;;;;;5036128;28;20555;-67
2022/12/05 09:36:50;;;;;;;1.08;1.05;;;;;;;;;;5045972;28;20128;-65
2022/12/05 09:39:25;;;;;;;2.58;1.92;;;;;;;;;;5043943;28;20503;-66
2022/12/05 09:42:07;;;;;;;2.67;2.25;;;;;;;;;;5048363;28;20131;-65
2022/12/05 09:44:54;;;;;;;3.47;1.48;;;;;;;;;;5050080;28;20425;-65
2022/12/05 09:47:34;;;;;;;3.42;1.23;;;;;;;;;;5046780;28;20059;-65
2022/12/05 09:50:05;;;;;;;2.85;1.45;;;;;;;;;;5035297;28;20049;-66
2022/12/05 09:52:38;;;;;;;6.53;2.03;;;;;;;;;;5037775;28;20040;-64
2022/12/05 09:55:12;;;;;;;1.48;1.23;;;;;;;;;;5048270;28;20049;-65
2022/12/05 09:57:44;;;;;;;5.57;1.73;;;;;;;;;;5053887;28;20131;-66
2022/12/05 10:00:14;;;;;;;2.13;1.00;;;;;;;;;;5032550;28;20053;-65
2022/12/05 10:02:48;;;;;;;2.28;1.77;;;;;;;;;;5046181;28;20084;-64
2022/12/05 10:05:20;;;;;;;3.50;1.92;;;;;;;;;;5044157;28;20699;-64
2022/12/05 10:07:52;;;;;;;4.88;2.15;;;;;;;;;;5047058;28;20052;-64
2022/12/05 10:10:31;;;;;;;10.20;2.17;;;;;;;;;;5046144;28;20082;-65
2022/12/05 10:13:06;;;;;;;3.50;2.17;;;;;;;;;;5048442;28;20048;-64
2022/12/05 10:15:37;;;;;;;3.22;1.77;;;;;;;;;;5054203;28;20040;-64
2022/12/05 10:18:11;;;;;;;5.00;1.83;;;;;;;;;;5031012;28;20351;-65
2022/12/05 10:20:44;;;;;;;2.13;1.23;;;;;;;;;;5071104;28;20052;-65
2022/12/05 10:23:15;;;;;;;3.25;1.95;;;;;;;;;;5070524;28;20561;-65
2022/12/05 10:26:06;;;;;;;4.20;2.60;;;;;;;;;;5076937;28;20084;-64
2022/12/05 10:28:38;;;;;;;3.90;1.77;;;;;;;;;;5070500;28;20059;-64
2022/12/05 10:31:09;;;;;;;1.58;0.98;;;;;;;;;;5080280;28;20049;-64
2022/12/05 10:33:42;;;;;;;3.25;1.70;;;;;;;;;;5076144;28;20048;-64
2022/12/05 10:36:12;;;;;;;5.32;2.53;;;;;;;;;;5066692;28;20048;-64
2022/12/05 10:38:42;;;;;;;2.63;1.20;;;;;;;;;;5062839;28;20378;-63
2022/12/05 10:41:12;;;;;;;2.80;1.50;;;;;;;;;;5069784;28;20148;-64
2022/12/05 10:43:41;;;;;;;0.75;0.73;;;;;;;;;;5065933;28;20097;-65
2022/12/05 10:46:11;;;;;;;4.32;2.05;;;;;;;;;;5070541;28;20601;-66
2022/12/05 10:48:46;;;;;;;4.20;1.23;;;;;;;;;;5066009;28;20369;-65
2022/12/05 10:51:16;;;;;;;2.92;1.75;;;;;;;;;;5069310;28;20063;-66
2022/12/05 10:53:48;;;;;;;2.38;1.52;;;;;;;;;;5070246;28;20138;-65
2022/12/05 10:56:35;;;;;;;5.88;2.10;;;;;;;;;;5072554;28;20493;-63
2022/12/05 10:59:04;;;;;;;2.10;1.40;;;;;;;;;;5068343;28;20671;-66
2022/12/05 11:01:34;;;;;;;10.18;2.05;;;;;;;;;;5076834;28;20051;-66
2022/12/05 11:04:06;;;;;;;7.78;3.25;;;;;;;;;;5069393;28;20048;-64
2022/12/05 11:06:49;;;;;;;1.10;1.05;;;;;;;;;;5080678;28;20047;-64
2022/12/05 11:09:18;;;;;;;4.18;2.00;;;;;;;;;;5070186;28;20439;-63
2022/12/05 11:11:57;;;;;;;3.15;1.77;;;;;;;;;;5068798;28;20056;-64
2022/12/05 11:14:28;;;;;;;5.55;3.05;;;;;;;;;;5071163;28;20049;-63
2022/12/05 11:16:58;;;;;;;3.50;2.28;;;;;;;;;;5072848;28;20057;-64
2022/12/05 11:19:30;;;;;;;3.80;2.03;;;;;;;;;;5078329;28;20055;-64
2022/12/05 11:21:58;;;;;;;10.05;2.45;;;;;;;;;;5083834;28;20078;-64
2022/12/05 11:24:27;;;;;;;3.97;1.50;;;;;;;;;;5081863;28;20049;-64
2022/12/05 11:26:56;;;;;;;5.45;1.80;;;;;;;;;;5070354;28;20048;-65
2022/12/05 11:29:32;;;;;;;2.05;1.27;;;;;;;;;;5061846;28;20516;-64
2022/12/05 11:32:04;;;;;;;3.15;1.85;;;;;;;;;;5065150;28;20044;-66
2022/12/05 11:34:38;;;;;;;1.05;0.90;;;;;;;;;;5061021;28;20044;-64
2022/12/05 11:37:13;;;;;;;3.55;2.00;;;;;;;;;;5060353;28;20055;-64
2022/12/05 11:39:41;;;;;;;4.38;1.30;;;;;;;;;;5062051;28;20048;-63
2022/12/05 11:42:17;;;;;;;2.53;1.70;;;;;;;;;;5075140;28;20055;-63
2022/12/05 11:44:54;;;;;;;2.58;1.58;;;;;;;;;;5068675;28;20053;-65
2022/12/05 11:47:27;;;;;;;1.92;0.90;;;;;;;;;;5065042;28;20087;-64
2022/12/05 11:50:04;;;;;;;3.05;1.60;;;;;;;;;;5066654;28;20052;-64
2022/12/05 11:52:36;;;;;;;2.95;1.75;;;;;;;;;;5065554;28;20072;-64
2022/12/05 11:55:13;;;;;;;11.68;1.48;;;;;;;;;;5066661;28;20137;-64
2022/12/05 11:57:51;;;;;;;2.45;1.58;;;;;;;;;;5062845;28;20128;-64
2022/12/05 12:00:22;;;;;;;1.52;1.23;;;;;;;;;;5061902;28;20047;-65
2022/12/05 12:03:10;;;;;;;3.28;1.88;;;;;;;;;;5063574;28;20060;-64
2022/12/05 12:05:44;;;;;;;2.95;1.88;;;;;;;;;;5072188;28;20049;-64
2022/12/05 12:08:18;;;;;;;5.55;2.10;;;;;;;;;;5054638;28;20461;-63
2022/12/05 12:10:54;;;;;;;3.83;1.15;;;;;;;;;;5073078;28;20040;-64
2022/12/05 12:13:31;;;;;;;9.63;2.28;;;;;;;;;;5067498;28;20052;-64
2022/12/05 12:16:04;;;;;;;5.15;2.67;;;;;;;;;;5072542;28;20099;-64
2022/12/05 12:18:51;;;;;;;2.35;1.27;;;;;;;;;;5070228;28;20040;-64
2022/12/05 12:21:27;;;;;;;3.25;0.70;;;;;;;;;;5057603;28;20036;-67
2022/12/05 12:24:04;;;;;;;4.97;2.10;;;;;;;;;;5069298;28;20174;-64
2022/12/05 12:26:40;;;;;;;1.98;1.40;;;;;;;;;;5071355;28;20139;-64
2022/12/05 12:29:15;;;;;;;2.58;1.65;;;;;;;;;;5072563;28;20084;-64
2022/12/05 12:31:51;;;;;;;1.55;1.10;;;;;;;;;;5070719;28;20131;-65
2022/12/05 12:34:29;;;;;;;3.53;2.33;;;;;;;;;;5067945;28;20053;-64
2022/12/05 12:37:01;;;;;;;3.08;2.08;;;;;;;;;;5080154;28;20501;-64
2022/12/05 12:39:35;;;;;;;1.30;0.90;;;;;;;;;;5071328;28;20052;-63
2022/12/05 12:42:10;;;;;;;1.48;1.08;;;;;;;;;;5067374;28;20052;-64
2022/12/05 12:44:54;;;;;;;1.05;0.90;;;;;;;;;;5064232;28;20076;-64
2022/12/05 12:47:26;;;;;;;1.50;1.27;;;;;;;;;;5068982;28;20083;-63
2022/12/05 12:50:02;;;;;;;2.63;0.73;;;;;;;;;;5071060;28;20064;-64
2022/12/05 12:52:41;;;;;;;3.55;1.73;;;;;;;;;;5070574;28;20131;-64
2022/12/05 12:55:16;;;;;;;1.70;1.45;;;;;;;;;;5068917;28;20049;-65
2022/12/05 12:57:51;;;;;;;7.70;2.30;;;;;;;;;;5063240;28;20056;-64
2022/12/05 13:00:23;;;;;;;3.83;1.45;;;;;;;;;;5059415;28;20063;-65
2022/12/05 13:02:55;;;;;;;5.47;2.00;;;;;;;;;;5061508;28;20369;-64
2022/12/05 13:05:28;;;;;;;1.50;0.90;;;;;;;;;;5063544;28;20090;-64
2022/12/05 13:08:00;;;;;;;5.73;1.37;;;;;;;;;;5058189;28;20056;-68
2022/12/05 13:10:34;;;;;;;8.13;1.77;;;;;;;;;;5060794;28;20306;-65
2022/12/05 13:13:04;;;;;;;0.63;0.60;;;;;;;;;;5066432;28;20448;-65
2022/12/05 13:15:36;;;;;;;1.42;0.77;;;;;;;;;;5065238;28;20470;-64
2022/12/05 13:18:05;;;;;;;0.70;0.70;;;;;;;;;;5063628;28;20131;-65
2022/12/05 13:20:36;;;;;;;3.40;1.48;;;;;;;;;;5072462;28;20045;-64
2022/12/05 13:23:08;;;;;;;3.70;1.30;;;;;;;;;;5064016;28;20041;-67
2022/12/05 13:25:39;;;;;;;1.17;0.82;;;;;;;;;;5071791;28;20052;-64
2022/12/05 13:28:10;;;;;;;1.23;0.88;;;;;;;;;;5063782;28;20148;-67
2022/12/05 13:31:00;;;;;;;1.90;1.55;;;;;;;;;;5060666;28;20076;-65
2022/12/05 13:33:31;;;;;;;0.68;0.52;;;;;;;;;;5061993;28;20044;-65
2022/12/05 13:44:33;;;;;;;2.90;0.85;;;;;;;;;;5058663;28;20109;-67
2022/12/05 13:47:06;;;;;;;3.50;1.42;;;;;;;;;;5060437;28;20142;-63
2022/12/05 13:49:38;;;;;;;0.40;0.40;;;;;;;;;;5060776;28;20147;-63
2022/12/05 13:52:08;;;;;;;1.05;0.95;;;;;;;;;;5060515;28;20393;-64
2022/12/05 13:54:43;;;;;;;3.08;1.52;;;;;;;;;;5059291;28;20044;-64
2022/12/05 13:57:26;;;;;;;1.05;0.95;;;;;;;;;;5062154;28;20421;-66
2022/12/05 14:00:03;;;;;;;0.45;0.45;;;;;;;;;;5060234;28;20497;-64
2022/12/05 14:02:50;;;;;;;1.13;0.77;;;;;;;;;;5068744;28;20040;-65
2022/12/05 14:05:42;;;;;;;0.65;0.65;;;;;;;;;;5061052;28;20053;-64
2022/12/05 14:08:44;;;;;;;3.90;1.70;;;;;;;;;;5049018;28;20087;-67
2022/12/05 14:11:14;;;;;;;2.53;1.17;;;;;;;;;;5042650;28;20052;-64
2022/12/05 14:13:44;;;;;;;1.20;0.73;;;;;;;;;;5060750;28;20040;-65
2022/12/05 14:16:46;;;;;;;5.75;2.10;;;;;;;;;;5056911;28;20040;-64
2022/12/05 14:19:21;;;;;;;3.58;0.73;;;;;;;;;;5058306;28;20072;-64
2022/12/05 14:21:54;;;;;;;0.82;0.68;;;;;;;;;;5061580;28;20373;-63
2022/12/05 14:24:28;;;;;;;1.67;1.15;;;;;;;;;;5058653;28;20044;-64
2022/12/05 14:27:06;;;;;;;1.23;0.70;;;;;;;;;;5057411;28;20057;-64
2022/12/05 14:29:39;;;;;;;2.03;0.95;;;;;;;;;;5057825;28;20056;-64
2022/12/05 14:32:13;;;;;;;1.77;0.85;;;;;;;;;;5057427;28;20053;-65
2022/12/05 14:34:50;;;;;;;1.10;1.05;;;;;;;;;;5061563;28;20052;-64
2022/12/05 14:37:24;;;;;;;0.65;0.60;;;;;;;;;;5061347;28;20061;-64
2022/12/05 14:39:53;;;;;;;0.70;0.70;;;;;;;;;;5060870;28;20056;-64
2022/12/05 14:42:26;;;;;;;1.45;1.10;;;;;;;;;;5059150;28;20441;-64
2022/12/05 14:44:55;;;;;;;3.17;0.60;;;;;;;;;;5059480;28;20045;-65
2022/12/05 14:47:26;;;;;;;0.30;0.30;;;;;;;;;;5068694;28;20382;-64
2022/12/05 14:50:00;;;;;;;2.78;0.88;;;;;;;;;;5062449;28;20075;-64
2022/12/05 14:52:32;;;;;;;1.17;0.75;;;;;;;;;;5059631;28;20097;-67
2022/12/05 14:55:04;;;;;;;0.70;0.70;;;;;;;;;;5060507;28;20586;-65
2022/12/05 14:57:36;;;;;;;1.60;0.90;;;;;;;;;;5060679;28;20040;-65
2022/12/05 15:00:06;;;;;;;0.98;0.95;;;;;;;;;;5057736;28;20040;-65
2022/12/05 15:02:37;;;;;;;0.90;0.82;;;;;;;;;;5057759;28;20040;-63
2022/12/05 15:05:15;;;;;;;1.85;0.63;;;;;;;;;;5058615;28;20048;-65
2022/12/05 15:07:44;;;;;;;0.65;0.60;;;;;;;;;;5057318;28;20059;-65
2022/12/05 15:10:17;;;;;;;2.78;0.95;;;;;;;;;;5061837;28;20041;-64
2022/12/05 15:12:48;;;;;;;6.18;1.50;;;;;;;;;;5081799;28;20480;-64
2022/12/05 15:15:21;;;;;;;1.80;0.70;;;;;;;;;;5072524;28;20383;-63
2022/12/05 15:17:51;;;;;;;1.00;0.32;;;;;;;;;;5065249;28;20493;-64
2022/12/05 15:20:24;;;;;;;0.65;0.65;;;;;;;;;;5078117;28;20057;-63
2022/12/05 15:22:52;;;;;;;0.50;0.50;;;;;;;;;;5067410;28;20061;-64
2022/12/05 15:25:25;;;;;;;1.25;0.73;;;;;;;;;;5069230;28;20048;-64
2022/12/05 15:27:59;;;;;;;1.13;0.57;;;;;;;;;;5082562;28;20060;-64